Terminal Aerodrome Forecast
Issued by NWS Tuscon, AZ

Home | Current Version | Previous Version | Text Only | Print | Product List | Glossary On
Versions: 1 2 3 4 5 6 7 8 9 10 11 12 13 14 15 16
000
FTUS45 KTWC 271731
TAFDUG
TAF
KDUG 271731Z 2718/2818 10006KT P6SM SCT070 BKN120
     FM272000 12010KT P6SM VCTS SCT060CB BKN090
     FM280000 24007KT P6SM VCSH BKN060 OVC130
     FM280300 05010KT P6SM BKN060 BKN130 PROB30 2803/2808 -SHRA
     FM280800 10006KT P6SM SCT060 BKN150=

USA.gov is the U.S. government's official web portal to all federal, state and local government web resources and services.